createdAt,value
2023-04-15T00:01:38.114Z,99095.69
2023-04-15T00:04:05.524Z,99094.75
2023-04-15T00:06:33.039Z,99105.22
2023-04-15T00:09:01.033Z,99134.22
2023-04-15T00:11:28.972Z,99118.31
2023-04-15T00:13:56.306Z,99125.00
2023-04-15T00:16:23.853Z,99121.63
2023-04-15T00:18:51.884Z,99124.88
2023-04-15T00:21:19.268Z,99127.50
2023-04-15T00:23:49.856Z,99151.25
2023-04-15T00:26:17.218Z,99157.03
2023-04-15T00:28:44.870Z,99154.50
2023-04-15T00:31:12.520Z,99175.56
2023-04-15T00:33:40.191Z,99162.16
2023-04-15T00:36:08.679Z,99168.22
2023-04-15T00:38:36.731Z,99169.03
2023-04-15T00:41:04.326Z,99166.25
2023-04-15T00:43:31.730Z,99168.50
2023-04-15T00:45:59.784Z,99174.88
2023-04-15T00:48:28.027Z,99187.88
2023-04-15T00:50:55.426Z,99207.31
2023-04-15T00:53:22.857Z,99204.59
2023-04-15T00:55:51.251Z,99214.91
2023-04-15T00:58:18.962Z,99218.44
2023-04-15T01:00:46.916Z,99226.03
2023-04-15T01:03:15.460Z,99230.28
2023-04-15T01:05:43.034Z,99223.00
2023-04-15T01:08:10.715Z,99233.50
2023-04-15T01:10:38.224Z,99259.97
2023-04-15T01:13:05.559Z,99258.66
2023-04-15T01:15:33.311Z,99252.63
2023-04-15T01:18:01.084Z,99262.00
2023-04-15T01:20:29.857Z,99260.88
2023-04-15T01:22:57.339Z,99258.78
2023-04-15T01:25:34.909Z,99270.28
2023-04-15T01:28:03.322Z,99287.59
2023-04-15T01:30:34.001Z,99303.59
2023-04-15T01:33:01.440Z,99322.91
2023-04-15T01:35:28.903Z,99326.97
2023-04-15T01:38:06.483Z,99337.44
2023-04-15T01:40:35.192Z,99355.72
2023-04-15T01:43:03.855Z,99370.41
2023-04-15T01:45:31.237Z,99391.63
2023-04-15T01:47:58.701Z,99411.94
2023-04-15T01:50:27.212Z,99428.09
2023-04-15T01:52:54.598Z,99441.41
2023-04-15T01:55:22.411Z,99433.22
2023-04-15T01:57:49.763Z,99423.47
2023-04-15T02:00:17.668Z,99437.66
2023-04-15T02:02:45.288Z,99441.97
2023-04-15T02:05:12.844Z,99441.06
2023-04-15T02:07:40.195Z,99449.84
2023-04-15T02:10:07.479Z,99459.28
2023-04-15T02:12:34.868Z,99488.28
2023-04-15T02:15:02.214Z,99497.78
2023-04-15T02:17:29.566Z,99502.25
2023-04-15T02:19:57.239Z,99504.09
2023-04-15T02:22:24.591Z,99514.47
2023-04-15T02:24:51.978Z,99511.91
2023-04-15T02:27:19.425Z,99511.75
2023-04-15T02:29:47.011Z,99515.22
2023-04-15T02:32:14.365Z,99501.00
2023-04-15T02:34:42.961Z,99504.63
2023-04-15T02:37:11.416Z,99520.63
2023-04-15T02:39:39.053Z,99504.34
2023-04-15T02:42:07.506Z,99487.59
2023-04-15T02:44:36.529Z,99486.72
2023-04-15T02:47:05.153Z,99504.03
2023-04-15T02:49:32.782Z,99521.78
2023-04-15T02:52:00.673Z,99514.59
2023-04-15T02:54:31.097Z,99506.59
2023-04-15T02:56:58.472Z,99499.09
2023-04-15T02:59:25.878Z,99512.53
2023-04-15T03:01:53.682Z,99521.25
2023-04-15T03:04:21.234Z,99513.38
2023-04-15T03:06:48.660Z,99509.88
2023-04-15T03:09:16.120Z,99515.94
2023-04-15T03:11:43.471Z,99519.41
2023-04-15T03:14:11.205Z,99514.94
2023-04-15T03:16:38.585Z,99521.97
2023-04-15T03:19:06.610Z,99524.13
2023-04-15T03:21:33.957Z,99512.50
2023-04-15T03:24:01.629Z,99522.78
2023-04-15T03:26:32.587Z,99532.53
2023-04-15T03:29:00.194Z,99541.66
2023-04-15T03:31:27.768Z,99570.25
2023-04-15T03:33:55.112Z,99577.38
2023-04-15T03:36:22.547Z,99575.63
2023-04-15T03:38:50.300Z,99580.91
2023-04-15T03:43:47.409Z,99574.88
2023-04-15T03:46:14.880Z,99563.31
2023-04-15T03:48:42.253Z,99571.22
2023-04-15T03:51:09.635Z,99563.13
2023-04-15T03:53:37.101Z,99562.19
2023-04-15T03:56:04.635Z,99570.19
2023-04-15T03:58:32.021Z,99577.84
2023-04-15T04:00:59.486Z,99579.31
2023-04-15T04:03:27.549Z,99581.91
2023-04-15T04:05:55.463Z,99583.06
2023-04-15T04:08:22.889Z,99591.59
2023-04-15T04:10:50.277Z,99585.22
2023-04-15T04:13:17.651Z,99587.13
2023-04-15T04:15:45.062Z,99595.19
2023-04-15T04:18:12.593Z,99610.91
2023-04-15T04:20:39.986Z,99609.31
2023-04-15T04:23:07.349Z,99613.22
2023-04-15T04:25:34.664Z,99600.56
2023-04-15T04:28:02.023Z,99606.00
2023-04-15T04:30:29.481Z,99631.59
2023-04-15T04:32:56.942Z,99644.78
2023-04-15T04:35:24.340Z,99650.09
2023-04-15T04:37:52.410Z,99655.59
2023-04-15T04:40:19.884Z,99635.34
2023-04-15T04:42:46.836Z,99643.56
2023-04-15T04:45:14.270Z,99652.09
2023-04-15T04:47:41.636Z,99654.81
2023-04-15T04:50:09.326Z,99672.59
2023-04-15T04:52:36.921Z,99665.97
2023-04-15T04:55:04.547Z,99659.44
2023-04-15T04:57:31.913Z,99654.34
2023-04-15T04:59:59.282Z,99677.47
2023-04-15T05:02:27.632Z,99692.63
2023-04-15T05:04:55.555Z,99700.84
2023-04-15T05:07:22.528Z,99704.63
2023-04-15T05:09:49.646Z,99693.16
2023-04-15T05:12:18.294Z,99693.97
2023-04-15T05:14:46.908Z,99692.09
2023-04-15T05:17:14.456Z,99702.41
2023-04-15T05:19:41.840Z,99722.53
2023-04-15T05:22:09.164Z,99725.31
2023-04-15T05:24:36.513Z,99731.19
2023-04-15T05:27:04.355Z,99736.59
2023-04-15T05:29:32.270Z,99741.09
2023-04-15T05:31:59.718Z,99751.63
2023-04-15T05:34:27.111Z,99763.84
2023-04-15T05:36:54.524Z,99763.06
2023-04-15T05:39:22.141Z,99783.50
2023-04-15T05:41:49.513Z,99793.38
2023-04-15T05:44:16.891Z,99803.22
2023-04-15T05:46:44.236Z,99815.59
2023-04-15T05:49:11.222Z,99813.03
2023-04-15T05:51:38.757Z,99825.50
2023-04-15T05:54:06.865Z,99825.66
2023-04-15T05:56:34.249Z,99831.13
2023-04-15T05:59:01.806Z,99835.69
2023-04-15T06:01:29.326Z,99856.66
2023-04-15T06:03:57.165Z,99851.53
2023-04-15T06:06:25.305Z,99845.78
2023-04-15T06:08:52.876Z,99834.53
2023-04-15T06:11:22.154Z,99853.22
2023-04-15T06:13:49.601Z,99849.88
2023-04-15T06:16:16.947Z,99855.84
2023-04-15T06:18:44.288Z,99844.53
2023-04-15T06:21:11.765Z,99843.88
2023-04-15T06:23:41.258Z,99839.94
2023-04-15T06:26:08.843Z,99846.72
2023-04-15T06:28:36.210Z,99850.78
2023-04-15T06:31:04.249Z,99848.94
2023-04-15T06:33:32.189Z,99832.81
2023-04-15T06:37:06.290Z,99776.28
2023-04-15T06:39:33.790Z,99767.16
2023-04-15T06:42:01.674Z,99733.13
2023-04-15T06:44:30.086Z,99727.22
2023-04-15T06:46:58.782Z,99728.22
2023-04-15T06:49:26.779Z,99718.81
2023-04-15T06:51:54.198Z,99705.69
2023-04-15T06:54:21.484Z,99699.84
2023-04-15T06:56:48.760Z,99705.41
2023-04-15T06:59:16.118Z,99685.44
2023-04-15T07:01:43.724Z,99668.94
2023-04-15T07:04:12.956Z,99650.59
2023-04-15T07:06:40.814Z,99649.03
2023-04-15T07:09:09.166Z,99620.22
2023-04-15T07:11:37.010Z,99595.78
2023-04-15T07:14:04.828Z,99576.66
2023-04-15T07:16:32.948Z,99534.59
2023-04-15T07:19:00.596Z,99526.78
2023-04-15T07:21:28.449Z,99493.47
2023-04-15T07:23:55.684Z,99476.84
2023-04-15T07:26:23.668Z,99435.56
2023-04-15T07:28:51.862Z,99407.44
2023-04-15T07:31:19.567Z,99387.22
2023-04-15T07:33:46.979Z,99375.78
2023-04-15T07:36:14.333Z,99368.72
2023-04-15T07:38:41.740Z,99340.59
2023-04-15T07:41:09.313Z,99317.69
2023-04-15T07:43:36.712Z,99296.56
2023-04-15T07:46:04.238Z,99278.94
2023-04-15T07:48:31.983Z,99263.88
2023-04-15T07:50:59.426Z,99250.59
2023-04-15T07:53:26.794Z,99249.63
2023-04-15T07:55:54.134Z,99276.63
2023-04-15T07:58:21.541Z,99254.78
2023-04-15T08:00:49.119Z,99254.69
2023-04-15T08:03:16.834Z,99249.34
2023-04-15T08:05:44.724Z,99254.69
2023-04-15T08:08:12.231Z,99248.41
2023-04-15T08:10:39.585Z,99239.63
2023-04-15T08:13:07.822Z,99236.88
2023-04-15T08:15:35.207Z,99237.75
2023-04-15T08:18:02.570Z,99255.34
2023-04-15T08:20:29.991Z,99243.94
2023-04-15T08:22:57.349Z,99256.28
2023-04-15T08:25:24.434Z,99275.59
2023-04-15T08:27:51.884Z,99273.13
2023-04-15T08:30:19.537Z,99265.09
2023-04-15T08:32:47.559Z,99279.78
2023-04-15T08:35:15.465Z,99261.41
2023-04-15T08:37:42.909Z,99271.81
2023-04-15T08:40:11.322Z,99272.66
2023-04-15T08:42:45.001Z,99241.81
2023-04-15T08:45:12.506Z,99214.34
2023-04-15T08:47:40.097Z,99195.69
2023-04-15T08:50:10.751Z,99192.03
2023-04-15T08:52:38.494Z,99198.06
2023-04-15T08:55:07.499Z,99185.78
2023-04-15T08:57:34.953Z,99156.69
2023-04-15T09:00:05.734Z,99146.72
2023-04-15T09:02:33.590Z,99130.03
2023-04-15T09:05:01.175Z,99121.16
2023-04-15T09:07:28.556Z,99128.13
2023-04-15T09:09:55.871Z,99128.31
2023-04-15T09:12:23.207Z,99146.38
2023-04-15T09:14:50.796Z,99121.84
2023-04-15T09:17:26.704Z,99117.94
2023-04-15T09:20:14.392Z,99121.91
2023-04-15T09:22:43.065Z,99060.84
2023-04-15T09:25:16.361Z,99066.75
2023-04-15T09:27:51.213Z,99088.44
2023-04-15T09:30:18.559Z,99046.13
2023-04-15T09:32:57.814Z,99012.63
2023-04-15T09:35:27.521Z,98994.34
2023-04-15T09:38:09.857Z,99015.88
2023-04-15T09:40:38.134Z,99027.22
2023-04-15T09:43:07.092Z,99030.47
2023-04-15T09:45:36.467Z,98986.78
2023-04-15T09:48:27.281Z,99001.41
2023-04-15T09:50:57.687Z,98988.28
2023-04-15T09:53:26.080Z,99004.69
2023-04-15T09:55:58.883Z,99021.59
2023-04-15T09:58:28.394Z,99015.22
2023-04-15T10:00:57.891Z,99019.50
2023-04-15T10:03:28.350Z,99020.63
2023-04-15T10:05:59.871Z,98979.81
2023-04-15T10:08:33.699Z,98953.44
2023-04-15T10:11:05.038Z,98987.50
2023-04-15T10:13:35.057Z,98964.03
2023-04-15T10:16:11.418Z,98928.03
2023-04-15T10:18:45.721Z,98880.81
2023-04-15T10:21:18.685Z,98791.00
2023-04-15T10:23:46.339Z,98760.38
2023-04-15T10:26:17.632Z,98716.75
2023-04-15T10:28:47.196Z,98790.97
2023-04-15T10:31:15.619Z,98768.13
2023-04-15T10:33:44.510Z,98678.38
2023-04-15T10:36:12.683Z,98669.81
2023-04-15T10:38:46.794Z,98645.03
2023-04-15T10:41:23.993Z,98653.09
2023-04-15T10:44:05.137Z,98649.13
2023-04-15T10:46:42.778Z,98609.16
2023-04-15T10:49:19.049Z,98584.38
2023-04-15T10:51:53.609Z,98562.06
2023-04-15T10:54:26.294Z,98580.06
2023-04-15T10:57:07.275Z,98537.94
2023-04-15T10:59:58.318Z,98497.66
2023-04-15T11:02:41.555Z,98439.28
2023-04-15T11:05:10.885Z,98547.78
2023-04-15T11:07:46.701Z,98486.03
2023-04-15T11:10:25.898Z,98488.38
2023-04-15T11:12:57.518Z,98556.31
2023-04-15T11:15:33.609Z,98580.72
2023-04-15T11:18:16.756Z,98493.44
2023-04-15T11:20:55.596Z,98493.81
2023-04-15T11:23:39.820Z,98334.19
2023-04-15T11:26:09.923Z,98315.75
2023-04-15T11:28:42.584Z,98348.91
2023-04-15T11:31:18.362Z,98343.06
2023-04-15T11:34:01.664Z,98250.81
2023-04-15T11:36:32.046Z,98189.97
2023-04-15T11:39:00.274Z,98279.19
2023-04-15T11:41:27.714Z,98238.00
2023-04-15T11:43:55.074Z,98117.06
2023-04-15T11:46:28.765Z,98249.03
2023-04-15T11:48:56.211Z,98267.06
2023-04-15T11:51:23.654Z,98170.31
2023-04-15T11:53:52.138Z,98191.03
2023-04-15T11:56:24.530Z,98177.09
2023-04-15T11:58:58.487Z,98216.09
2023-04-15T12:01:44.065Z,98173.53
2023-04-15T12:04:22.442Z,98001.53
2023-04-15T12:06:52.505Z,98116.69
2023-04-15T12:09:21.020Z,98009.06
2023-04-15T12:11:50.146Z,97851.16
2023-04-15T12:14:33.437Z,97995.72
2023-04-15T12:17:06.271Z,97939.63
2023-04-15T12:19:45.721Z,97996.94
2023-04-15T12:22:16.223Z,98020.66
2023-04-15T12:24:47.093Z,98076.56
2023-04-15T12:27:16.844Z,98151.13
2023-04-15T12:29:44.438Z,98105.59
2023-04-15T12:32:16.874Z,98038.84
2023-04-15T12:34:54.416Z,97995.81
2023-04-15T12:37:22.055Z,98026.63
2023-04-15T12:39:50.563Z,97979.97
2023-04-15T12:42:18.541Z,97963.78
2023-04-15T12:44:46.308Z,97875.09
2023-04-15T12:47:14.137Z,97863.19
2023-04-15T12:49:42.295Z,97849.56
2023-04-15T12:52:09.378Z,97857.88
2023-04-15T12:54:36.733Z,97860.06
2023-04-15T12:57:06.761Z,97795.72
2023-04-15T12:59:35.223Z,97677.25
2023-04-15T13:02:03.175Z,97638.13
2023-04-15T13:04:31.712Z,97601.53
2023-04-15T13:06:59.298Z,97660.50
2023-04-15T13:09:27.162Z,97674.03
2023-04-15T13:11:54.816Z,97610.31
2023-04-15T13:14:22.620Z,97590.91
2023-04-15T13:16:50.018Z,97556.63
2023-04-15T13:19:17.364Z,97494.03
2023-04-15T13:21:44.759Z,97484.59
2023-04-15T13:24:13.679Z,97447.66
2023-04-15T13:26:40.684Z,97450.56
2023-04-15T13:29:08.122Z,97458.06
2023-04-15T13:31:35.627Z,97435.38
2023-04-15T13:34:03.369Z,97429.38
2023-04-15T13:36:31.367Z,97480.66
2023-04-15T13:38:59.995Z,97423.75
2023-04-15T13:41:27.366Z,97462.31
2023-04-15T13:43:54.707Z,97452.75
2023-04-15T13:46:22.361Z,97513.25
2023-04-15T13:48:49.996Z,97527.91
2023-04-15T13:51:17.342Z,97459.78
2023-04-15T13:53:44.671Z,97494.81
2023-04-15T13:56:12.066Z,97502.78
2023-04-15T13:58:40.593Z,97542.94
2023-04-15T14:01:08.113Z,97455.56
2023-04-15T14:03:36.979Z,97439.50
2023-04-15T14:06:05.106Z,97419.59
2023-04-15T14:08:32.847Z,97279.84
2023-04-15T14:11:00.724Z,97302.66
2023-04-15T14:13:28.347Z,97343.03
2023-04-15T14:15:56.897Z,97433.22
2023-04-15T14:18:24.394Z,97378.31
2023-04-15T14:20:51.974Z,97410.78
2023-04-15T14:23:19.651Z,97451.34
2023-04-15T14:25:48.270Z,97431.72
2023-04-15T14:28:16.263Z,97501.44
2023-04-15T14:30:43.870Z,97444.53
2023-04-15T14:33:11.579Z,97488.03
2023-04-15T14:35:39.309Z,97514.41
2023-04-15T14:38:10.768Z,97487.00
2023-04-15T14:40:38.694Z,97497.19
2023-04-15T14:43:06.033Z,97577.78
2023-04-15T14:45:33.740Z,97561.97
2023-04-15T14:48:01.695Z,97567.19
2023-04-15T14:50:29.251Z,97636.41
2023-04-15T14:52:56.636Z,97655.31
2023-04-15T14:55:24.088Z,97655.97
2023-04-15T14:57:51.541Z,97718.69
2023-04-15T15:00:18.976Z,97786.34
2023-04-15T15:02:47.737Z,97901.22
2023-04-15T15:05:16.142Z,98101.69
2023-04-15T15:07:43.714Z,98285.47
2023-04-15T15:10:14.801Z,98390.44
2023-04-15T15:12:42.523Z,98487.53
2023-04-15T15:15:28.057Z,98573.50
2023-04-15T15:17:56.598Z,98637.44
2023-04-15T15:20:28.643Z,98674.00
2023-04-15T15:22:56.320Z,98725.56
2023-04-15T15:25:24.171Z,98755.75
2023-04-15T15:27:51.782Z,98778.13
2023-04-15T15:30:19.336Z,98812.47
2023-04-15T15:32:46.885Z,98835.69
2023-04-15T15:35:14.958Z,98830.88
2023-04-15T15:37:46.090Z,98868.81
2023-04-15T15:40:13.951Z,98908.31
2023-04-15T15:42:42.747Z,98936.94
2023-04-15T15:45:10.775Z,98972.72
2023-04-15T15:47:38.290Z,98963.69
2023-04-15T15:50:06.353Z,98978.94
2023-04-15T15:52:33.973Z,99000.09
2023-04-15T15:55:02.111Z,99039.22
2023-04-15T15:57:29.577Z,99070.00
2023-04-15T16:00:10.530Z,99095.81
2023-04-15T16:05:09.618Z,99159.06
2023-04-15T16:07:37.057Z,99199.78
2023-04-15T16:10:04.944Z,99247.28
2023-04-15T16:12:34.842Z,99305.16
2023-04-15T16:15:02.988Z,99305.50
2023-04-15T16:17:30.680Z,99351.25
2023-04-15T16:20:00.649Z,99367.41
2023-04-15T16:22:28.722Z,99402.75
2023-04-15T16:24:56.106Z,99422.16
2023-04-15T16:27:23.790Z,99423.19
2023-04-15T16:29:51.392Z,99467.13
2023-04-15T16:32:18.993Z,99482.81
2023-04-15T16:34:46.609Z,99464.34
2023-04-15T16:37:14.039Z,99480.28
2023-04-15T16:39:41.676Z,99448.69
2023-04-15T16:42:10.462Z,99439.91
2023-04-15T16:44:37.957Z,99451.41
2023-04-15T16:47:05.776Z,99456.75
2023-04-15T16:49:35.009Z,99449.03
2023-04-15T16:52:02.691Z,99463.25
2023-04-15T16:54:30.204Z,99494.88
2023-04-15T16:56:58.689Z,99495.81
2023-04-15T16:59:26.447Z,99528.44
2023-04-15T17:01:55.047Z,99532.03
2023-04-15T17:04:22.696Z,99553.97
2023-04-15T17:06:50.288Z,99597.13
2023-04-15T17:09:17.998Z,99598.97
2023-04-15T17:11:45.765Z,99609.56
2023-04-15T17:14:13.256Z,99645.69
2023-04-15T17:16:41.952Z,99658.91
2023-04-15T17:19:09.296Z,99678.28
2023-04-15T17:21:36.850Z,99701.19
2023-04-15T17:24:04.442Z,99715.31
2023-04-15T17:26:31.938Z,99731.16
2023-04-15T17:28:59.308Z,99744.34
2023-04-15T17:31:26.718Z,99754.91
2023-04-15T17:34:01.965Z,99772.50
2023-04-15T17:36:35.607Z,99800.69
2023-04-15T17:39:03.814Z,99805.94
2023-04-15T17:41:31.381Z,99827.09
2023-04-15T17:43:58.932Z,99854.34
2023-04-15T17:46:26.891Z,99876.34
2023-04-15T17:48:54.301Z,99893.94
2023-04-15T17:51:21.864Z,99906.28
2023-04-15T17:53:49.210Z,99915.97
2023-04-15T17:56:16.690Z,99923.88
2023-04-15T17:58:43.997Z,99933.53
2023-04-15T18:01:11.518Z,99944.06
2023-04-15T18:03:39.281Z,99954.63
2023-04-15T18:06:06.891Z,99962.56
2023-04-15T18:08:34.335Z,99979.22
2023-04-15T18:11:01.668Z,99978.31
2023-04-15T18:13:29.005Z,99988.88
2023-04-15T18:15:56.585Z,100006.47
2023-04-15T18:18:23.928Z,100010.84
2023-04-15T18:20:50.928Z,100023.19
2023-04-15T18:23:18.328Z,100028.47
2023-04-15T18:25:45.930Z,100039.75
2023-04-15T18:28:13.797Z,100063.56
2023-04-15T18:30:41.240Z,100075.84
2023-04-15T18:33:08.831Z,100091.66
2023-04-15T18:35:36.738Z,100103.09
2023-04-15T18:38:04.355Z,100112.72
2023-04-15T18:40:32.194Z,100132.97
2023-04-15T18:43:00.100Z,100144.38
2023-04-15T18:45:27.551Z,100151.41
2023-04-15T18:47:55.263Z,100159.28
2023-04-15T18:50:22.735Z,100176.94
2023-04-15T18:52:50.120Z,100182.13
2023-04-15T18:55:19.217Z,100190.03
2023-04-15T18:57:46.759Z,100207.63
2023-04-15T19:00:20.207Z,100215.53
2023-04-15T19:03:08.549Z,100224.28
2023-04-15T19:05:36.788Z,100233.06
2023-04-15T19:08:04.178Z,100240.94
2023-04-15T19:10:31.628Z,100257.72
2023-04-15T19:12:58.987Z,100264.63
2023-04-15T19:15:26.518Z,100277.00
2023-04-15T19:17:53.891Z,100283.03
2023-04-15T19:20:21.338Z,100296.25
2023-04-15T19:22:48.968Z,100303.31
2023-04-15T19:25:16.336Z,100306.81
2023-04-15T19:27:43.669Z,100317.47
2023-04-15T19:30:11.314Z,100316.50
2023-04-15T19:32:38.752Z,100329.63
2023-04-15T19:35:07.564Z,100342.88
2023-04-15T19:37:35.766Z,100349.00
2023-04-15T19:40:03.197Z,100354.22
2023-04-15T19:42:30.646Z,100372.72
2023-04-15T19:44:58.040Z,100377.06
2023-04-15T19:47:25.450Z,100377.97
2023-04-15T19:49:52.837Z,100385.88
2023-04-15T19:52:20.206Z,100390.34
2023-04-15T19:54:47.605Z,100392.84
2023-04-15T19:57:14.953Z,100397.19
2023-04-15T19:59:42.319Z,100401.63
2023-04-15T20:02:09.857Z,100399.03
2023-04-15T20:04:37.314Z,100400.75
2023-04-15T20:07:04.702Z,100410.47
2023-04-15T20:09:32.072Z,100407.81
2023-04-15T20:12:46.927Z,100412.16
2023-04-15T20:14:46.861Z,100420.06
2023-04-15T20:17:14.970Z,100421.78
2023-04-15T20:19:42.379Z,100428.81
2023-04-15T20:22:09.792Z,100429.75
2023-04-15T20:24:37.163Z,100440.31
2023-04-15T20:27:04.537Z,100452.53
2023-04-15T20:29:31.892Z,100454.28
2023-04-15T20:31:59.303Z,100453.31
2023-04-15T20:34:26.643Z,100461.19
2023-04-15T20:36:53.991Z,100465.56
2023-04-15T20:39:21.638Z,100482.34
2023-04-15T20:41:50.802Z,100483.16
2023-04-15T20:44:18.135Z,100492.81
2023-04-15T20:46:45.767Z,100495.50
2023-04-15T20:49:13.185Z,100505.19
2023-04-15T20:51:40.514Z,100506.09
2023-04-15T20:54:07.908Z,100506.09
2023-04-15T20:56:35.414Z,100502.59
2023-04-15T20:59:03.090Z,100519.34
2023-04-15T21:01:30.583Z,100521.16
2023-04-15T21:03:59.483Z,100507.13
2023-04-15T21:06:27.698Z,100510.63
2023-04-15T21:08:55.079Z,100516.78
2023-04-15T21:11:43.120Z,100518.59
2023-04-15T21:14:09.932Z,100518.56
2023-04-15T21:16:37.285Z,100522.97
2023-04-15T21:19:04.990Z,100523.00
2023-04-15T21:21:32.800Z,100526.50
2023-04-15T21:24:00.497Z,100537.06
2023-04-15T21:26:27.920Z,100529.19
2023-04-15T21:28:55.303Z,100537.16
2023-04-15T21:31:22.972Z,100530.09
2023-04-15T21:33:50.460Z,100538.88
2023-04-15T21:36:17.868Z,100542.38
2023-04-15T21:38:45.213Z,100542.38
2023-04-15T21:41:12.872Z,100546.81
2023-04-15T21:43:40.376Z,100551.25
2023-04-15T21:46:23.996Z,100549.47
2023-04-15T21:48:55.684Z,100552.13
2023-04-15T21:51:23.191Z,100554.72
2023-04-15T21:53:50.758Z,100552.13
2023-04-15T21:56:20.265Z,100546.91
2023-04-15T21:58:47.614Z,100546.91
2023-04-15T22:01:15.136Z,100551.28
2023-04-15T22:03:42.747Z,100546.84
2023-04-15T22:06:10.343Z,100550.41
2023-04-15T22:08:48.381Z,100556.63
2023-04-15T22:11:26.729Z,100555.69
2023-04-15T22:13:54.814Z,100558.31
2023-04-15T22:16:22.308Z,100555.69
2023-04-15T22:18:49.827Z,100549.53
2023-04-15T22:21:17.302Z,100555.66
2023-04-15T22:23:48.798Z,100560.06
2023-04-15T22:26:16.269Z,100555.69
2023-04-15T22:28:43.669Z,100556.53
2023-04-15T22:31:11.398Z,100561.81
2023-04-15T22:33:38.955Z,100561.81
2023-04-15T22:36:06.523Z,100572.38
2023-04-15T22:38:34.083Z,100575.91
2023-04-15T22:41:01.605Z,100582.94
2023-04-15T22:43:28.964Z,100582.03
2023-04-15T22:45:56.860Z,100581.13
2023-04-15T22:48:24.350Z,100589.03
2023-04-15T22:50:51.822Z,100599.63
2023-04-15T22:53:19.295Z,100589.94
2023-04-15T22:55:49.749Z,100600.44
2023-04-15T22:58:18.475Z,100604.91
2023-04-15T23:00:46.207Z,100610.16
2023-04-15T23:03:13.854Z,100609.28
2023-04-15T23:05:42.321Z,100619.00
2023-04-15T23:08:09.725Z,100628.66
2023-04-15T23:10:40.010Z,100626.94
2023-04-15T23:13:07.370Z,100626.03
2023-04-15T23:15:34.760Z,100629.59
2023-04-15T23:18:02.290Z,100636.56
2023-04-15T23:20:29.729Z,100640.06
2023-04-15T23:22:57.050Z,100649.69
2023-04-15T23:25:24.452Z,100655.81
2023-04-15T23:27:51.819Z,100666.41
2023-04-15T23:30:19.233Z,100665.47
2023-04-15T23:32:46.690Z,100669.94
2023-04-15T23:35:14.069Z,100671.75
2023-04-15T23:37:41.403Z,100670.75
2023-04-15T23:40:09.130Z,100672.53
2023-04-15T23:42:36.492Z,100680.53
2023-04-15T23:45:03.972Z,100683.19
2023-04-15T23:47:31.330Z,100689.34
2023-04-15T23:49:58.695Z,100692.75
2023-04-15T23:52:26.075Z,100688.41
2023-04-15T23:54:53.562Z,100691.94
2023-04-15T23:57:21.039Z,100688.44
2023-04-15T23:59:48.387Z,100691.00
